Time;durP1;ratioP1;P1;durP2;ratioP2;P2;SDS_P1;SDS_P2;PMS_P1;PMS_P2;Temp;Humidity;BMP_temperature;BMP_pressure;BME280_temperature;BME280_humidity;BME280_pressure;Samples;Min_cycle;Max_cycle;Signal;HPM_P1;HPM_P2
2023/08/17 00:00:13;;;;;;;0.10;0.10;;;22.80;99.90;;;;;;5081438;28;20486;-81
2023/08/17 00:02:40;;;;;;;0.28;0.28;;;22.80;99.90;;;;;;5081103;28;20047;-81
2023/08/17 00:05:08;;;;;;;1.35;0.40;;;22.70;99.90;;;;;;5081550;28;20566;-80
2023/08/17 00:07:34;;;;;;;0.32;0.32;;;22.70;99.90;;;;;;5079754;28;20044;-81
2023/08/17 00:10:00;;;;;;;0.10;0.10;;;22.50;99.90;;;;;;5081527;28;20059;-81
2023/08/17 00:12:26;;;;;;;0.32;0.32;;;22.40;99.90;;;;;;5081249;28;20107;-82
2023/08/17 00:14:52;;;;;;;0.03;0.03;;;22.30;99.90;;;;;;5080554;28;20059;-79
2023/08/17 00:17:18;;;;;;;0.35;0.35;;;22.20;99.90;;;;;;5082913;28;20032;-81
2023/08/17 00:19:44;;;;;;;0.10;0.10;;;22.10;99.90;;;;;;5081266;28;20164;-81
2023/08/17 00:22:10;;;;;;;0.00;0.00;;;22.20;99.90;;;;;;5083525;28;20557;-78
2023/08/17 00:24:35;;;;;;;0.60;0.60;;;22.00;99.90;;;;;;5083130;28;20501;-79
2023/08/17 00:27:02;;;;;;;0.00;0.00;;;21.90;99.90;;;;;;5082882;28;20548;-80
2023/08/17 00:29:28;;;;;;;0.32;0.32;;;21.90;99.90;;;;;;5083222;28;20134;-79
2023/08/17 00:31:53;;;;;;;0.00;0.00;;;21.80;99.90;;;;;;5083253;28;20107;-81
2023/08/17 00:34:19;;;;;;;0.10;0.10;;;21.80;99.90;;;;;;5083107;28;20035;-79
2023/08/17 00:36:45;;;;;;;4.00;0.53;;;21.70;99.90;;;;;;5080752;28;20028;-80
2023/08/17 00:39:10;;;;;;;0.10;0.10;;;21.70;99.90;;;;;;5082875;28;20953;-81
2023/08/17 00:41:36;;;;;;;0.37;0.37;;;21.70;99.90;;;;;;5082126;28;20024;-80
2023/08/17 00:44:02;;;;;;;0.23;0.23;;;21.60;99.90;;;;;;5083243;28;20476;-79
2023/08/17 00:46:29;;;;;;;0.57;0.57;;;21.60;99.90;;;;;;5083825;28;20058;-81
2023/08/17 00:48:56;;;;;;;0.17;0.17;;;21.60;99.90;;;;;;5083427;28;20066;-84
2023/08/17 00:51:23;;;;;;;0.10;0.10;;;21.60;99.90;;;;;;5083180;28;20012;-78
2023/08/17 00:53:51;;;;;;;0.40;0.40;;;21.60;99.90;;;;;;5083061;28;20028;-80
2023/08/17 00:56:17;;;;;;;0.32;0.32;;;21.60;99.90;;;;;;5077533;28;20024;-81
2023/08/17 00:58:43;;;;;;;0.30;0.30;;;21.70;99.90;;;;;;5082194;28;20085;-80
2023/08/17 01:01:09;;;;;;;;;;;21.60;99.90;;;;;;5079133;28;20027;-81
2023/08/17 01:03:35;;;;;;;0.10;0.10;;;21.60;99.90;;;;;;5078611;28;19912;-79
2023/08/17 01:06:02;;;;;;;0.00;0.00;;;21.50;99.90;;;;;;5078454;28;20024;-79
2023/08/17 01:08:29;;;;;;;0.85;0.85;;;21.50;99.90;;;;;;5083198;28;20052;-79
2023/08/17 01:11:02;;;;;;;0.30;0.30;;;21.50;99.90;;;;;;5082820;28;20115;-83
2023/08/17 01:13:38;;;;;;;0.17;0.17;;;21.50;99.90;;;;;;5081236;28;20024;-78
2023/08/17 01:16:07;;;;;;;1.52;1.00;;;21.50;99.90;;;;;;5082872;28;20027;-79
2023/08/17 01:18:37;;;;;;;0.03;0.03;;;21.40;99.90;;;;;;5081085;28;20036;-79
2023/08/17 01:21:06;;;;;;;0.10;0.10;;;21.40;99.90;;;;;;5080690;28;20020;-81
2023/08/17 01:23:32;;;;;;;0.20;0.17;;;21.50;99.90;;;;;;5076257;28;20029;-80
2023/08/17 01:25:57;;;;;;;0.17;0.17;;;21.40;99.90;;;;;;5078908;28;20502;-80
2023/08/17 01:28:23;;;;;;;0.37;0.37;;;21.40;99.90;;;;;;5080941;28;20035;-80
2023/08/17 01:31:00;;;;;;;0.57;0.57;;;21.30;99.90;;;;;;5082003;28;20039;-80
2023/08/17 01:33:31;;;;;;;;;;;21.30;99.90;;;;;;5080124;28;20039;-83
2023/08/17 01:36:17;;;;;;;0.85;0.63;;;21.30;99.90;;;;;;5074543;28;19920;-80
2023/08/17 01:38:45;;;;;;;0.70;0.70;;;21.20;99.90;;;;;;5080765;28;20044;-81
2023/08/17 01:41:13;;;;;;;2.25;0.98;;;21.20;99.90;;;;;;5083125;28;20028;-80
2023/08/17 01:43:42;;;;;;;0.10;0.10;;;21.20;99.90;;;;;;5082243;28;20020;-79
2023/08/17 01:46:08;;;;;;;0.45;0.45;;;21.30;99.90;;;;;;5081384;28;20050;-79
2023/08/17 01:48:33;;;;;;;0.20;0.20;;;21.40;99.90;;;;;;5082496;28;20024;-80
2023/08/17 01:50:59;;;;;;;0.37;0.37;;;21.50;99.90;;;;;;5082944;28;20259;-79
2023/08/17 01:53:25;;;;;;;0.10;0.10;;;21.40;99.90;;;;;;5080407;28;20471;-79
2023/08/17 01:55:50;;;;;;;0.10;0.10;;;21.40;99.90;;;;;;5078777;28;20032;-81
2023/08/17 01:58:16;;;;;;;0.10;0.10;;;21.40;99.90;;;;;;5082038;28;20028;-82
2023/08/17 02:00:42;;;;;;;0.30;0.30;;;21.40;99.90;;;;;;5082270;28;20034;-79
2023/08/17 02:03:07;;;;;;;0.27;0.20;;;21.40;99.90;;;;;;5081666;28;20146;-78
2023/08/17 02:05:33;;;;;;;0.40;0.40;;;21.30;99.90;;;;;;5082174;28;20036;-79
2023/08/17 02:07:59;;;;;;;0.43;0.43;;;21.30;99.90;;;;;;5082351;28;20063;-80
2023/08/17 02:10:25;;;;;;;0.00;0.00;;;21.30;99.90;;;;;;5082388;28;20029;-78
2023/08/17 02:12:50;;;;;;;2.53;1.75;;;21.30;99.90;;;;;;5080136;28;20109;-81
2023/08/17 02:15:16;;;;;;;0.43;0.43;;;21.20;99.90;;;;;;5078498;28;20032;-80
2023/08/17 02:17:42;;;;;;;0.13;0.13;;;21.20;99.90;;;;;;5077768;28;20695;-80
2023/08/17 02:20:08;;;;;;;0.20;0.20;;;21.20;99.90;;;;;;5085935;28;20095;-80
2023/08/17 02:22:34;;;;;;;0.00;0.00;;;21.30;99.90;;;;;;5084720;28;20038;-79
2023/08/17 02:25:00;;;;;;;0.20;0.20;;;21.30;99.90;;;;;;5085020;28;20110;-78
2023/08/17 02:27:26;;;;;;;0.07;0.07;;;21.30;99.90;;;;;;5084530;28;20139;-81
2023/08/17 02:29:52;;;;;;;0.13;0.13;;;21.20;99.90;;;;;;5085794;28;20266;-80
2023/08/17 02:32:17;;;;;;;0.37;0.37;;;21.00;99.90;;;;;;5083202;28;20028;-78
2023/08/17 02:34:43;;;;;;;0.17;0.17;;;20.90;99.90;;;;;;5085540;28;20024;-79
2023/08/17 02:37:09;;;;;;;0.33;0.33;;;20.90;99.90;;;;;;5082968;28;20040;-79
2023/08/17 02:39:34;;;;;;;2.97;0.77;;;20.80;99.90;;;;;;5084062;28;20557;-78
2023/08/17 02:42:00;;;;;;;0.13;0.13;;;20.70;99.90;;;;;;5085543;28;20043;-80
2023/08/17 02:44:28;;;;;;;1.40;1.30;;;20.70;99.90;;;;;;5083491;28;20034;-79
2023/08/17 02:46:54;;;;;;;0.75;0.75;;;20.70;99.90;;;;;;5083944;28;20115;-80
2023/08/17 02:49:20;;;;;;;0.20;0.20;;;20.70;99.90;;;;;;5085696;28;20386;-80
2023/08/17 02:51:45;;;;;;;1.65;1.02;;;20.70;99.90;;;;;;5085277;28;20027;-82
2023/08/17 02:54:11;;;;;;;0.50;0.50;;;20.70;99.90;;;;;;5081116;28;20031;-81
2023/08/17 02:56:37;;;;;;;0.40;0.40;;;20.80;99.90;;;;;;5081017;28;20020;-80
2023/08/17 02:59:02;;;;;;;0.30;0.30;;;20.80;99.90;;;;;;5085023;28;20039;-79
2023/08/17 03:01:29;;;;;;;0.40;0.40;;;20.70;99.90;;;;;;5085825;28;20028;-79
2023/08/17 03:03:55;;;;;;;0.22;0.22;;;20.70;99.90;;;;;;5085575;28;20020;-80
2023/08/17 03:06:21;;;;;;;0.00;0.00;;;20.60;99.90;;;;;;5084952;28;20028;-84
2023/08/17 03:08:46;;;;;;;1.20;0.93;;;20.70;99.90;;;;;;5083346;28;20287;-79
2023/08/17 03:11:12;;;;;;;0.37;0.37;;;20.70;99.90;;;;;;5082331;28;20032;-79
2023/08/17 03:13:38;;;;;;;0.38;0.38;;;20.80;99.90;;;;;;5081726;28;20024;-77
2023/08/17 03:16:04;;;;;;;0.97;0.93;;;20.80;99.90;;;;;;5078479;28;20415;-82
2023/08/17 03:18:30;;;;;;;0.27;0.23;;;20.80;99.90;;;;;;5081572;28;20043;-77
2023/08/17 03:20:55;;;;;;;0.43;0.43;;;20.80;99.90;;;;;;5084353;28;20039;-77
2023/08/17 03:23:21;;;;;;;0.00;0.00;;;20.80;99.90;;;;;;5080492;28;20067;-81
2023/08/17 03:25:54;;;;;;;1.23;1.13;;;20.70;99.90;;;;;;5079454;28;20032;-79
2023/08/17 03:28:20;;;;;;;1.00;0.63;;;20.70;99.90;;;;;;5081577;28;20028;-78
2023/08/17 03:30:46;;;;;;;0.52;0.52;;;20.80;99.90;;;;;;5082812;28;20762;-79
2023/08/17 03:33:12;;;;;;;0.33;0.33;;;20.80;99.90;;;;;;5081899;28;20035;-79
2023/08/17 03:35:37;;;;;;;0.25;0.25;;;20.80;99.90;;;;;;5081901;28;20567;-79
2023/08/17 03:38:03;;;;;;;0.13;0.13;;;20.90;99.90;;;;;;5082971;28;20036;-79
2023/08/17 03:40:29;;;;;;;0.27;0.27;;;21.00;99.90;;;;;;5081210;28;20119;-79
2023/08/17 03:42:55;;;;;;;0.20;0.20;;;21.00;99.90;;;;;;5082239;28;20111;-80
2023/08/17 03:45:20;;;;;;;0.67;0.50;;;21.00;99.90;;;;;;5083381;28;20270;-79
2023/08/17 03:47:46;;;;;;;0.50;0.47;;;21.00;99.90;;;;;;5079869;28;20518;-80
2023/08/17 03:50:12;;;;;;;0.33;0.33;;;21.00;99.90;;;;;;5079898;28;20024;-82
2023/08/17 03:52:37;;;;;;;0.60;0.60;;;21.00;99.90;;;;;;5081145;28;20028;-79
2023/08/17 03:55:06;;;;;;;0.40;0.40;;;21.00;99.90;;;;;;5082109;28;20035;-80
2023/08/17 03:57:32;;;;;;;0.13;0.13;;;21.00;99.90;;;;;;5078200;28;20114;-80
2023/08/17 03:59:57;;;;;;;0.53;0.53;;;20.90;99.90;;;;;;5081006;28;20032;-79
2023/08/17 04:02:23;;;;;;;1.60;0.77;;;20.70;99.90;;;;;;5083521;28;20028;-81
2023/08/17 04:04:49;;;;;;;0.30;0.17;;;20.50;99.90;;;;;;5084192;28;20108;-80
2023/08/17 04:07:21;;;;;;;0.40;0.40;;;20.40;99.90;;;;;;5084115;28;20506;-80
2023/08/17 04:09:47;;;;;;;0.90;0.52;;;20.50;99.90;;;;;;5082273;28;20036;-79
2023/08/17 04:12:13;;;;;;;0.53;0.53;;;20.40;99.90;;;;;;5083837;28;20024;-79
2023/08/17 04:14:38;;;;;;;0.33;0.33;;;20.50;99.90;;;;;;5083327;28;20042;-78
2023/08/17 04:17:04;;;;;;;0.50;0.50;;;20.50;99.90;;;;;;5083151;28;20051;-79
2023/08/17 04:19:30;;;;;;;0.00;0.00;;;20.50;99.90;;;;;;5083335;28;20039;-79
2023/08/17 04:21:56;;;;;;;0.30;0.30;;;20.50;99.90;;;;;;5083522;28;20471;-80
2023/08/17 04:24:21;;;;;;;0.10;0.10;;;20.50;99.90;;;;;;5081042;28;20028;-80
2023/08/17 04:26:47;;;;;;;0.27;0.27;;;20.50;99.90;;;;;;5083507;28;20543;-79
2023/08/17 04:29:13;;;;;;;0.33;0.33;;;20.60;99.90;;;;;;5082247;28;20089;-78
2023/08/17 04:31:39;;;;;;;0.27;0.27;;;20.60;99.90;;;;;;5083386;28;20027;-77
2023/08/17 04:34:05;;;;;;;0.17;0.17;;;20.70;99.90;;;;;;5083018;28;20031;-78
2023/08/17 04:36:30;;;;;;;0.28;0.28;;;20.70;99.90;;;;;;5083664;28;20031;-79
2023/08/17 04:38:56;;;;;;;0.43;0.43;;;20.70;99.90;;;;;;5083474;28;20052;-80
2023/08/17 04:41:22;;;;;;;0.53;0.53;;;20.70;99.90;;;;;;5085322;28;20467;-79
2023/08/17 04:43:49;;;;;;;0.47;0.47;;;20.80;99.90;;;;;;5081198;28;20048;-76
2023/08/17 04:46:15;;;;;;;0.10;0.10;;;20.80;99.90;;;;;;5082329;28;20023;-77
2023/08/17 04:48:40;;;;;;;0.20;0.20;;;20.90;99.90;;;;;;5083477;28;20676;-76
2023/08/17 04:51:06;;;;;;;0.30;0.30;;;20.90;99.90;;;;;;5085744;28;20028;-78
2023/08/17 04:53:32;;;;;;;0.10;0.10;;;20.90;99.90;;;;;;5084258;28;20028;-78
2023/08/17 04:55:59;;;;;;;1.13;0.10;;;20.90;99.90;;;;;;5083447;28;20270;-76
2023/08/17 04:58:25;;;;;;;0.57;0.57;;;20.90;99.90;;;;;;5083693;28;20290;-77
2023/08/17 05:00:51;;;;;;;0.40;0.40;;;20.70;99.90;;;;;;5083311;28;20113;-76
2023/08/17 05:03:16;;;;;;;1.10;0.63;;;20.70;99.90;;;;;;5083426;28;20031;-76
2023/08/17 05:05:42;;;;;;;0.77;0.77;;;20.60;99.90;;;;;;5083225;28;20435;-79
2023/08/17 05:08:08;;;;;;;0.30;0.30;;;20.60;99.90;;;;;;5080703;28;20055;-78
2023/08/17 05:10:34;;;;;;;0.10;0.10;;;20.50;99.90;;;;;;5078747;28;20077;-80
2023/08/17 05:13:01;;;;;;;1.17;1.08;;;20.50;99.90;;;;;;5080792;28;20051;-77
2023/08/17 05:15:27;;;;;;;1.03;0.77;;;20.40;99.90;;;;;;5077963;28;20031;-77
2023/08/17 05:17:52;;;;;;;0.60;0.60;;;20.40;99.90;;;;;;5079980;28;20024;-78
2023/08/17 05:20:20;;;;;;;0.50;0.50;;;20.40;99.90;;;;;;5081078;28;20020;-77
2023/08/17 05:22:46;;;;;;;0.35;0.35;;;20.50;99.90;;;;;;5078529;28;20020;-77
2023/08/17 05:25:12;;;;;;;6.15;1.75;;;20.50;99.90;;;;;;5081414;28;20020;-80
2023/08/17 05:27:38;;;;;;;0.23;0.23;;;20.50;99.90;;;;;;5080149;28;20039;-79
2023/08/17 05:30:04;;;;;;;0.47;0.47;;;20.40;99.90;;;;;;5079809;28;20024;-76
2023/08/17 05:32:30;;;;;;;0.15;0.15;;;20.30;99.90;;;;;;5080137;28;20064;-74
2023/08/17 05:34:56;;;;;;;0.47;0.43;;;20.30;99.90;;;;;;5078687;28;20036;-72
2023/08/17 05:37:22;;;;;;;0.05;0.05;;;20.60;99.90;;;;;;5080663;28;20043;-76
2023/08/17 05:39:47;;;;;;;0.43;0.43;;;21.10;99.90;;;;;;5078436;28;20454;-76
2023/08/17 05:42:13;;;;;;;0.30;0.30;;;21.30;99.90;;;;;;5080703;28;20056;-76
2023/08/17 05:44:39;;;;;;;0.20;0.20;;;21.10;99.90;;;;;;5081103;28;20051;-75
2023/08/17 05:47:04;;;;;;;0.17;0.17;;;21.40;99.90;;;;;;5080162;28;20031;-75
2023/08/17 05:49:31;;;;;;;2.33;0.43;;;21.10;99.90;;;;;;5082170;28;20074;-75
2023/08/17 05:51:56;;;;;;;0.60;0.25;;;21.00;99.90;;;;;;5083064;28;20028;-75
2023/08/17 05:54:22;;;;;;;1.07;0.50;;;21.00;99.90;;;;;;5086035;28;20786;-75
2023/08/17 05:56:48;;;;;;;0.30;0.30;;;21.10;99.90;;;;;;5086670;28;20035;-75
2023/08/17 05:59:14;;;;;;;1.57;0.93;;;21.10;99.90;;;;;;5086668;28;20445;-75
2023/08/17 06:01:40;;;;;;;0.30;0.23;;;21.10;99.90;;;;;;5086334;28;20032;-74
2023/08/17 06:04:06;;;;;;;0.30;0.30;;;21.20;99.90;;;;;;5086561;28;20035;-76
2023/08/17 06:06:33;;;;;;;0.05;0.05;;;21.20;99.90;;;;;;5084965;28;20896;-76
2023/08/17 06:08:58;;;;;;;0.13;0.13;;;21.30;99.90;;;;;;5084884;28;20066;-74
2023/08/17 06:11:24;;;;;;;0.57;0.33;;;21.40;99.90;;;;;;5086488;28;20529;-75
2023/08/17 06:13:50;;;;;;;0.10;0.10;;;21.70;99.90;;;;;;5086115;28;20036;-75
2023/08/17 06:16:16;;;;;;;0.30;0.30;;;22.10;99.90;;;;;;5081562;28;20269;-76
2023/08/17 06:18:41;;;;;;;0.20;0.20;;;22.00;99.90;;;;;;5086041;28;20051;-76
2023/08/17 06:21:08;;;;;;;0.20;0.20;;;21.90;99.90;;;;;;5086202;28;20030;-74
2023/08/17 06:23:33;;;;;;;0.13;0.13;;;22.00;99.90;;;;;;5086073;28;20032;-75
2023/08/17 06:25:59;;;;;;;0.33;0.33;;;22.70;99.90;;;;;;5085967;28;20115;-76
2023/08/17 06:28:26;;;;;;;0.00;0.00;;;24.20;99.90;;;;;;5081718;28;20035;-75
2023/08/17 06:30:55;;;;;;;;;;;25.70;99.90;;;;;;5078234;28;20024;-76
2023/08/17 06:33:22;;;;;;;0.30;0.30;;;26.20;99.90;;;;;;5086431;28;19907;-75
2023/08/17 06:35:48;;;;;;;0.05;0.05;;;26.90;99.90;;;;;;5086373;28;20035;-79
2023/08/17 06:38:14;;;;;;;0.40;0.40;;;26.80;99.90;;;;;;5081610;28;20814;-77
2023/08/17 06:40:40;;;;;;;0.20;0.20;;;27.30;99.90;;;;;;5082227;28;20016;-75
2023/08/17 06:43:05;;;;;;;0.00;0.00;;;27.80;99.90;;;;;;5082506;28;20298;-76
2023/08/17 06:45:32;;;;;;;0.17;0.17;;;27.90;99.90;;;;;;5077704;28;20028;-78
2023/08/17 06:47:58;;;;;;;0.30;0.30;;;28.50;99.90;;;;;;5085306;28;20052;-77
2023/08/17 06:50:24;;;;;;;0.10;0.10;;;28.30;99.90;;;;;;5076591;28;20854;-75
2023/08/17 06:52:50;;;;;;;0.08;0.08;;;28.80;99.90;;;;;;5085514;28;20032;-75
2023/08/17 06:55:16;;;;;;;0.30;0.30;;;29.00;99.90;;;;;;5084371;28;20896;-76
2023/08/17 06:57:42;;;;;;;0.00;0.00;;;29.10;99.90;;;;;;5085164;28;20020;-77
2023/08/17 07:00:08;;;;;;;0.00;0.00;;;28.90;99.90;;;;;;5073756;28;20474;-78
2023/08/17 07:02:34;;;;;;;0.30;0.30;;;28.70;99.90;;;;;;5084010;28;20023;-76
2023/08/17 07:05:00;;;;;;;0.73;0.73;;;28.30;99.90;;;;;;5084154;28;20025;-75
2023/08/17 07:07:26;;;;;;;0.88;0.85;;;28.70;99.90;;;;;;5082798;28;20055;-78
2023/08/17 07:09:52;;;;;;;0.03;0.03;;;29.00;99.90;;;;;;5083726;28;20036;-75
2023/08/17 07:12:19;;;;;;;0.00;0.00;;;28.80;99.90;;;;;;5085050;28;20089;-76
2023/08/17 07:14:45;;;;;;;0.25;0.25;;;29.00;99.90;;;;;;5077891;28;20023;-77
2023/08/17 07:17:10;;;;;;;0.00;0.00;;;29.00;99.90;;;;;;5084796;28;20206;-76
2023/08/17 07:19:36;;;;;;;;;;;29.40;99.50;;;;;;5085918;28;20039;-79
2023/08/17 07:22:02;;;;;;;0.30;0.30;;;29.50;99.10;;;;;;5078979;28;19934;-79
2023/08/17 07:24:27;;;;;;;;;;;29.80;98.60;;;;;;5077305;28;20047;-76
2023/08/17 07:26:53;;;;;;;0.10;0.10;;;29.80;98.10;;;;;;5084673;28;19916;-78
2023/08/17 07:29:18;;;;;;;;;;;30.10;98.40;;;;;;5079539;28;20056;-75
2023/08/17 07:31:44;;;;;;;0.65;0.65;;;30.70;97.20;;;;;;5081537;28;19980;-78
2023/08/17 07:34:10;;;;;;;;;;;30.60;95.80;;;;;;5072248;28;20035;-76
2023/08/17 07:36:36;;;;;;;4.47;1.80;;;31.40;95.70;;;;;;5081211;28;19904;-76
2023/08/17 07:39:01;;;;;;;0.20;0.20;;;32.20;95.20;;;;;;5083978;28;20560;-77
2023/08/17 07:41:27;;;;;;;0.38;0.35;;;31.50;94.20;;;;;;5082390;28;20037;-76
2023/08/17 07:43:53;;;;;;;0.00;0.00;;;31.90;92.20;;;;;;5084531;28;20097;-76
2023/08/17 07:46:19;;;;;;;0.00;0.00;;;32.20;93.30;;;;;;5084767;28;20032;-76
2023/08/17 07:48:44;;;;;;;0.10;0.10;;;33.40;91.30;;;;;;5083861;28;20372;-77
2023/08/17 07:51:10;;;;;;;0.05;0.05;;;33.10;90.30;;;;;;5083963;28;20507;-77
2023/08/17 07:53:36;;;;;;;0.20;0.20;;;33.30;90.60;;;;;;5083784;28;20024;-78
2023/08/17 07:56:01;;;;;;;0.00;0.00;;;33.60;89.70;;;;;;5074731;28;20024;-78
2023/08/17 07:58:27;;;;;;;0.00;0.00;;;33.50;87.70;;;;;;5083676;28;20094;-77
2023/08/17 08:00:53;;;;;;;0.28;0.28;;;33.20;87.80;;;;;;5083813;28;20028;-76
2023/08/17 08:03:19;;;;;;;0.00;0.00;;;33.50;88.30;;;;;;5081930;28;20880;-76
2023/08/17 08:05:44;;;;;;;0.43;0.20;;;33.90;87.10;;;;;;5083827;28;20016;-77
2023/08/17 08:08:10;;;;;;;0.00;0.00;;;34.60;83.40;;;;;;5077340;28;20120;-77
2023/08/17 08:10:36;;;;;;;0.10;0.10;;;34.60;80.60;;;;;;5078390;28;20061;-77
2023/08/17 08:13:01;;;;;;;0.32;0.32;;;34.80;80.50;;;;;;5084045;28;20028;-77
2023/08/17 08:15:27;;;;;;;0.15;0.15;;;34.20;79.90;;;;;;5076400;28;20063;-78
2023/08/17 08:17:53;;;;;;;0.00;0.00;;;34.80;78.80;;;;;;5083475;28;20372;-77
2023/08/17 08:20:19;;;;;;;0.63;0.63;;;34.60;80.40;;;;;;5082061;28;20077;-75
2023/08/17 08:22:45;;;;;;;0.05;0.05;;;35.50;77.20;;;;;;5074052;28;20029;-77
2023/08/17 08:25:11;;;;;;;0.20;0.20;;;36.10;74.80;;;;;;5074864;28;20376;-76
2023/08/17 08:27:36;;;;;;;0.63;0.63;;;35.60;73.70;;;;;;5077572;28;20089;-78
2023/08/17 08:30:02;;;;;;;0.10;0.10;;;36.20;71.00;;;;;;5082794;28;20024;-76
2023/08/17 08:32:28;;;;;;;4.30;0.60;;;36.90;68.30;;;;;;5083707;28;20028;-77
2023/08/17 08:34:54;;;;;;;0.10;0.10;;;36.30;65.50;;;;;;5080674;28;20032;-77
2023/08/17 08:37:19;;;;;;;0.00;0.00;;;36.30;69.40;;;;;;5079950;28;20073;-77
2023/08/17 08:39:50;;;;;;;0.00;0.00;;;37.10;66.40;;;;;;5083473;28;20032;-77
2023/08/17 08:42:17;;;;;;;0.65;0.38;;;36.50;64.90;;;;;;5083435;28;20818;-79
2023/08/17 08:44:43;;;;;;;0.00;0.00;;;37.10;66.90;;;;;;5081979;28;20016;-76
2023/08/17 08:47:10;;;;;;;0.08;0.08;;;37.60;62.90;;;;;;5083399;28;20051;-76
2023/08/17 08:49:40;;;;;;;0.00;0.00;;;36.70;60.30;;;;;;5083212;28;20552;-76
2023/08/17 08:52:08;;;;;;;0.00;0.00;;;37.10;59.30;;;;;;5078550;28;20035;-78
2023/08/17 08:54:37;;;;;;;0.10;0.10;;;37.60;60.90;;;;;;5083322;28;20491;-78
2023/08/17 08:57:08;;;;;;;0.32;0.30;;;37.10;57.30;;;;;;5079246;28;20635;-78
2023/08/17 08:59:35;;;;;;;0.20;0.20;;;37.70;56.90;;;;;;5078712;28;20032;-77
2023/08/17 09:02:02;;;;;;;0.80;0.75;;;38.60;59.10;;;;;;5080466;28;20043;-76
2023/08/17 09:04:31;;;;;;;0.00;0.00;;;39.20;57.20;;;;;;5081054;28;20572;-77
2023/08/17 09:06:57;;;;;;;0.98;0.65;;;38.80;56.30;;;;;;5080754;28;20596;-79
2023/08/17 09:09:23;;;;;;;0.00;0.00;;;39.50;56.60;;;;;;5080660;28;20028;-77
2023/08/17 09:11:49;;;;;;;0.00;0.00;;;39.20;54.70;;;;;;5074847;28;20035;-78
2023/08/17 09:14:15;;;;;;;1.33;0.68;;;38.40;55.10;;;;;;5077881;28;20020;-76
2023/08/17 09:16:41;;;;;;;0.45;0.20;;;38.60;57.70;;;;;;5082085;28;20135;-77
2023/08/17 09:19:07;;;;;;;0.30;0.13;;;38.20;55.50;;;;;;5081577;28;20398;-78
2023/08/17 09:21:33;;;;;;;0.05;0.05;;;38.60;56.50;;;;;;5081850;28;20031;-77
2023/08/17 09:24:01;;;;;;;0.20;0.20;;;38.30;56.30;;;;;;5082823;28;20023;-76
2023/08/17 09:26:32;;;;;;;0.00;0.00;;;39.10;56.10;;;;;;5080573;28;20054;-77
2023/08/17 09:28:59;;;;;;;0.10;0.03;;;38.30;55.70;;;;;;5082395;28;20016;-76
2023/08/17 09:31:25;;;;;;;0.25;0.25;;;38.50;55.10;;;;;;5081066;28;20438;-77
2023/08/17 09:33:51;;;;;;;0.00;0.00;;;38.80;57.20;;;;;;5082535;28;20020;-76
2023/08/17 09:36:24;;;;;;;0.00;0.00;;;39.60;57.20;;;;;;5083015;28;20032;-78
2023/08/17 09:38:51;;;;;;;0.08;0.08;;;39.90;57.80;;;;;;5079742;28;20473;-76
2023/08/17 09:41:20;;;;;;;0.00;0.00;;;39.40;55.10;;;;;;5076377;28;20041;-77
2023/08/17 09:43:48;;;;;;;0.00;0.00;;;39.50;56.90;;;;;;5076820;28;20032;-76
2023/08/17 09:46:14;;;;;;;0.15;0.15;;;40.10;55.40;;;;;;5077967;28;20084;-76
2023/08/17 09:48:44;;;;;;;0.00;0.00;;;39.70;56.90;;;;;;5079616;28;20070;-77
2023/08/17 09:51:09;;;;;;;0.63;0.63;;;38.50;56.20;;;;;;5078152;28;20035;-77
2023/08/17 09:53:39;;;;;;;0.10;0.10;;;39.60;58.30;;;;;;5077208;28;20025;-77
2023/08/17 09:56:10;;;;;;;0.20;0.20;;;40.60;56.80;;;;;;5077624;28;20028;-77
2023/08/17 09:58:37;;;;;;;0.10;0.10;;;40.50;55.00;;;;;;5077846;28;20036;-80
2023/08/17 10:01:08;;;;;;;0.55;0.55;;;40.40;56.00;;;;;;5081669;28;20051;-76
2023/08/17 10:03:35;;;;;;;0.25;0.25;;;40.50;56.50;;;;;;5079054;28;20067;-76
2023/08/17 10:06:13;;;;;;;0.10;0.10;;;40.40;54.80;;;;;;5081252;28;20032;-76
2023/08/17 10:08:49;;;;;;;0.08;0.08;;;40.10;56.20;;;;;;5080463;28;20074;-76
2023/08/17 10:11:19;;;;;;;0.00;0.00;;;40.40;54.80;;;;;;5079755;28;20133;-76
2023/08/17 10:13:52;;;;;;;0.00;0.00;;;40.50;56.60;;;;;;5079037;28;20076;-77
2023/08/17 10:16:28;;;;;;;0.00;0.00;;;40.60;55.70;;;;;;5075953;28;20769;-77
2023/08/17 10:18:59;;;;;;;0.20;0.20;;;40.40;53.90;;;;;;5080634;28;20039;-76
2023/08/17 10:21:33;;;;;;;0.63;0.55;;;40.30;58.10;;;;;;5078640;28;20139;-76
2023/08/17 10:23:59;;;;;;;0.35;0.32;;;38.80;55.60;;;;;;5073168;28;20025;-77
2023/08/17 10:26:28;;;;;;;0.68;0.38;;;38.20;59.20;;;;;;5078986;28;20032;-77
2023/08/17 10:28:57;;;;;;;0.28;0.28;;;36.70;58.40;;;;;;5080238;28;20048;-79
2023/08/17 10:31:24;;;;;;;0.22;0.22;;;35.80;60.70;;;;;;5080568;28;20550;-76
2023/08/17 10:33:51;;;;;;;0.47;0.47;;;35.00;66.90;;;;;;5071339;28;20020;-76
2023/08/17 10:36:17;;;;;;;0.17;0.17;;;34.00;64.30;;;;;;5079573;28;20032;-79
2023/08/17 10:38:43;;;;;;;0.10;0.10;;;33.90;67.00;;;;;;5082830;28;20056;-76
2023/08/17 10:41:09;;;;;;;;;;;33.70;67.70;;;;;;5085807;28;20054;-76
2023/08/17 10:43:34;;;;;;;0.30;0.30;;;32.80;69.10;;;;;;5084001;28;19908;-76
2023/08/17 10:46:21;;;;;;;0.30;0.30;;;32.40;68.50;;;;;;5083236;28;20039;-78
2023/08/17 10:48:46;;;;;;;0.20;0.20;;;32.40;70.70;;;;;;5084798;28;20033;-79
2023/08/17 10:51:16;;;;;;;0.43;0.43;;;32.40;71.00;;;;;;5084386;28;20047;-77
2023/08/17 10:53:43;;;;;;;0.80;0.40;;;32.20;74.20;;;;;;5085699;28;20035;-79
2023/08/17 10:56:14;;;;;;;0.00;0.00;;;32.40;74.10;;;;;;5080933;28;20106;-75
2023/08/17 10:58:42;;;;;;;0.05;0.00;;;32.20;72.20;;;;;;5081851;28;20035;-76
2023/08/17 11:01:08;;;;;;;0.70;0.70;;;31.90;72.00;;;;;;5085685;28;20024;-76
2023/08/17 11:03:36;;;;;;;0.00;0.00;;;32.30;73.50;;;;;;5084505;28;20394;-77
2023/08/17 11:06:16;;;;;;;0.00;0.00;;;32.60;75.10;;;;;;5085027;28;20028;-77
2023/08/17 11:08:54;;;;;;;9.13;0.47;;;31.90;73.80;;;;;;5082569;28;20040;-77
2023/08/17 11:11:21;;;;;;;0.10;0.10;;;31.60;79.20;;;;;;5085450;28;20993;-75
2023/08/17 11:13:48;;;;;;;0.05;0.05;;;32.00;71.90;;;;;;5084890;28;20028;-77
2023/08/17 11:16:16;;;;;;;0.10;0.10;;;31.40;71.00;;;;;;5083879;28;20466;-76
2023/08/17 11:18:42;;;;;;;3.50;0.45;;;31.60;72.90;;;;;;5084866;28;20046;-78
2023/08/17 11:21:10;;;;;;;0.00;0.00;;;31.40;72.50;;;;;;5084364;28;20115;-76
2023/08/17 11:23:37;;;;;;;0.55;0.55;;;31.80;73.30;;;;;;5084938;28;20064;-76
2023/08/17 11:26:03;;;;;;;0.00;0.00;;;32.10;76.30;;;;;;5085074;28;20136;-77
2023/08/17 11:28:36;;;;;;;0.00;0.00;;;31.70;71.40;;;;;;5084832;28;20024;-77
2023/08/17 11:31:15;;;;;;;0.65;0.32;;;31.20;70.50;;;;;;5074026;28;20034;-76
2023/08/17 11:33:41;;;;;;;0.10;0.10;;;31.00;70.00;;;;;;5083448;28;20024;-75
2023/08/17 11:36:09;;;;;;;0.28;0.28;;;31.40;78.30;;;;;;5085062;28;20035;-79
2023/08/17 11:38:37;;;;;;;0.45;0.43;;;31.20;73.20;;;;;;5084589;28;20886;-76
2023/08/17 11:41:04;;;;;;;0.63;0.47;;;30.80;71.50;;;;;;5083855;28;20055;-76
2023/08/17 11:43:30;;;;;;;;;;;30.80;73.30;;;;;;5084935;28;20028;-76
2023/08/17 11:45:56;;;;;;;0.98;0.25;;;30.70;72.90;;;;;;5084905;28;19950;-76
2023/08/17 11:48:24;;;;;;;0.15;0.15;;;30.80;72.40;;;;;;5081087;28;20030;-75
2023/08/17 11:50:51;;;;;;;0.73;0.73;;;31.00;74.20;;;;;;5083488;28;20649;-76
2023/08/17 11:53:16;;;;;;;0.17;0.17;;;30.50;68.90;;;;;;5082905;28;20482;-77
2023/08/17 11:55:43;;;;;;;0.28;0.28;;;30.40;69.60;;;;;;5084513;28;20038;-76
2023/08/17 11:58:09;;;;;;;0.10;0.10;;;30.10;68.90;;;;;;5083814;28;20024;-76
2023/08/17 12:00:37;;;;;;;0.28;0.28;;;30.20;72.10;;;;;;5084819;28;20536;-76
2023/08/17 12:03:04;;;;;;;0.40;0.40;;;30.50;70.50;;;;;;5084117;28;20024;-77
2023/08/17 12:05:31;;;;;;;0.10;0.10;;;30.70;72.30;;;;;;5084288;28;20020;-76
2023/08/17 12:07:59;;;;;;;0.32;0.32;;;30.70;72.10;;;;;;5084117;28;20083;-77
2023/08/17 12:10:33;;;;;;;0.50;0.50;;;30.70;71.90;;;;;;5084055;28;20020;-76
2023/08/17 12:13:00;;;;;;;0.20;0.20;;;30.40;68.30;;;;;;5080457;28;20764;-75
2023/08/17 12:15:33;;;;;;;0.20;0.15;;;30.40;70.40;;;;;;5081167;28;20024;-76
2023/08/17 12:18:01;;;;;;;3.20;0.47;;;30.30;66.80;;;;;;5083041;28;20067;-75
2023/08/17 12:20:28;;;;;;;0.00;0.00;;;30.30;66.60;;;;;;5084087;28;20052;-76
2023/08/17 12:22:54;;;;;;;0.13;0.13;;;30.50;66.10;;;;;;5083528;28;20052;-76
2023/08/17 12:25:23;;;;;;;0.15;0.10;;;30.40;66.00;;;;;;5071917;28;20123;-75
2023/08/17 12:27:49;;;;;;;0.17;0.17;;;30.40;64.70;;;;;;5083859;28;20111;-76
2023/08/17 12:30:29;;;;;;;0.10;0.10;;;30.20;62.60;;;;;;5083140;28;20027;-75
2023/08/17 12:32:55;;;;;;;0.35;0.35;;;30.20;60.80;;;;;;5083675;28;20035;-75
2023/08/17 12:35:21;;;;;;;0.30;0.30;;;30.20;63.00;;;;;;5083305;28;20374;-77
2023/08/17 12:37:47;;;;;;;;;;;30.20;61.50;;;;;;5084019;28;20024;-76
2023/08/17 12:40:13;;;;;;;0.00;0.00;;;30.20;61.00;;;;;;5081751;28;20007;-77
2023/08/17 12:42:39;;;;;;;0.00;0.00;;;30.30;59.50;;;;;;5083125;28;20059;-75
2023/08/17 12:45:05;;;;;;;0.45;0.45;;;30.40;60.70;;;;;;5082876;28;20028;-78
2023/08/17 12:47:30;;;;;;;1.45;0.45;;;30.40;58.80;;;;;;5081572;28;20059;-76